createdAt,value
2018-05-23T00:02:19.830Z,6.13
2018-05-23T00:04:47.369Z,5.60
2018-05-23T00:07:14.883Z,6.07
2018-05-23T00:09:43.269Z,6.20
2018-05-23T00:12:11.548Z,6.87
2018-05-23T00:14:39.919Z,6.60
2018-05-23T00:17:08.218Z,5.13
2018-05-23T00:19:35.755Z,6.00
2018-05-23T00:22:04.133Z,6.10
2018-05-23T00:24:32.445Z,6.37
2018-05-23T00:26:59.969Z,6.60
2018-05-23T00:29:28.259Z,7.13
2018-05-23T00:31:56.542Z,6.80
2018-05-23T00:34:24.076Z,6.43
2018-05-23T00:36:52.400Z,7.83
2018-05-23T00:39:19.926Z,6.70
2018-05-23T00:41:48.219Z,6.30
2018-05-23T00:44:15.756Z,7.17
2018-05-23T00:46:44.135Z,7.17
2018-05-23T00:49:11.594Z,8.57
2018-05-23T00:51:39.914Z,6.10
2018-05-23T00:54:07.446Z,7.30
2018-05-23T00:56:34.958Z,7.37
2018-05-23T00:59:02.457Z,7.57
2018-05-23T01:01:30.020Z,7.03
2018-05-23T01:03:57.603Z,7.60
2018-05-23T01:06:25.900Z,7.93
2018-05-23T01:08:53.446Z,7.90
2018-05-23T01:11:20.988Z,7.60
2018-05-23T01:13:48.573Z,7.10
2018-05-23T01:16:16.088Z,8.57
2018-05-23T01:18:43.613Z,8.63
2018-05-23T01:21:11.147Z,8.93
2018-05-23T01:23:38.706Z,9.10
2018-05-23T01:26:06.241Z,8.57
2018-05-23T01:28:33.760Z,8.23
2018-05-23T01:31:01.323Z,9.20
2018-05-23T01:33:29.625Z,10.00
2018-05-23T01:35:57.176Z,10.00
2018-05-23T01:38:24.713Z,9.77
2018-05-23T01:40:52.251Z,8.80
2018-05-23T01:43:19.758Z,9.67
2018-05-23T01:45:47.286Z,9.00
2018-05-23T01:48:14.784Z,9.23
2018-05-23T01:50:42.332Z,8.00
2018-05-23T01:53:09.867Z,8.30
2018-05-23T01:55:38.133Z,8.47
2018-05-23T01:58:05.703Z,8.67
2018-05-23T02:00:33.247Z,9.33
2018-05-23T02:03:00.780Z,8.63
2018-05-23T02:05:28.314Z,8.27
2018-05-23T02:07:55.843Z,8.57
2018-05-23T02:10:24.144Z,8.73
2018-05-23T02:12:51.663Z,7.90
2018-05-23T02:15:19.186Z,7.40
2018-05-23T02:17:46.782Z,7.00
2018-05-23T02:20:14.308Z,7.40
2018-05-23T02:22:41.814Z,7.30
2018-05-23T02:25:10.093Z,7.77
2018-05-23T02:27:37.625Z,7.20
2018-05-23T02:30:05.162Z,8.60
2018-05-23T02:32:32.677Z,8.30
2018-05-23T02:35:00.231Z,9.83
2018-05-23T02:37:28.526Z,9.80
2018-05-23T02:39:56.067Z,11.33
2018-05-23T02:42:23.612Z,10.87
2018-05-23T02:44:51.134Z,10.10
2018-05-23T02:47:18.664Z,9.20
2018-05-23T02:49:46.177Z,10.10
2018-05-23T02:52:13.740Z,9.00
2018-05-23T02:54:42.011Z,8.73
2018-05-23T02:57:09.620Z,8.90
2018-05-23T02:59:37.142Z,8.00
2018-05-23T03:02:04.685Z,7.93
2018-05-23T03:04:32.217Z,7.73
2018-05-23T03:06:59.725Z,9.13
2018-05-23T03:09:28.016Z,9.17
2018-05-23T03:11:55.589Z,10.00
2018-05-23T03:14:23.188Z,8.93
2018-05-23T03:16:50.712Z,9.40
2018-05-23T03:19:18.263Z,9.77
2018-05-23T03:21:45.789Z,9.10
2018-05-23T03:24:13.305Z,9.10
2018-05-23T03:26:40.867Z,8.37
2018-05-23T03:29:08.394Z,9.90
2018-05-23T03:31:35.914Z,9.50
2018-05-23T03:34:03.486Z,8.83
2018-05-23T03:36:31.784Z,9.53
2018-05-23T03:38:59.372Z,8.47
2018-05-23T03:41:27.746Z,9.50
2018-05-23T03:43:55.277Z,9.07
2018-05-23T03:46:22.857Z,9.20
2018-05-23T03:48:50.368Z,9.93
2018-05-23T03:51:17.896Z,10.90
2018-05-23T03:53:45.506Z,10.57
2018-05-23T03:56:13.778Z,10.23
2018-05-23T03:58:42.059Z,10.07
2018-05-23T04:01:22.235Z,7.87
2018-05-23T04:04:01.603Z,8.00
2018-05-23T04:06:35.762Z,8.13
2018-05-23T04:09:04.075Z,8.67
2018-05-23T04:11:31.602Z,9.33
2018-05-23T04:13:59.126Z,8.87
2018-05-23T04:16:26.646Z,8.90
2018-05-23T04:18:54.164Z,9.47
2018-05-23T04:21:51.915Z,10.17
2018-05-23T04:24:19.506Z,8.80
2018-05-23T04:26:47.080Z,9.00
2018-05-23T04:29:14.622Z,9.40
2018-05-23T04:31:42.931Z,7.90
2018-05-23T04:34:10.466Z,7.13
2018-05-23T04:36:38.006Z,7.70
2018-05-23T04:39:06.309Z,8.50
2018-05-23T04:41:33.824Z,8.10
2018-05-23T04:44:01.434Z,11.40
2018-05-23T04:46:28.974Z,13.13
2018-05-23T04:48:57.267Z,9.20
2018-05-23T04:51:24.841Z,11.60
2018-05-23T04:53:52.387Z,10.87
2018-05-23T04:56:19.966Z,10.20
2018-05-23T04:58:47.504Z,10.40
2018-05-23T05:01:15.005Z,10.60
2018-05-23T05:03:42.546Z,8.80
2018-05-23T05:06:10.114Z,7.50
2018-05-23T05:08:38.440Z,7.73
2018-05-23T05:11:06.004Z,7.90
2018-05-23T05:13:34.268Z,7.67
2018-05-23T05:16:02.552Z,8.50
2018-05-23T05:18:30.105Z,8.37
2018-05-23T05:20:58.433Z,7.83
2018-05-23T05:23:26.818Z,8.50
2018-05-23T05:25:54.307Z,8.20
2018-05-23T05:28:21.854Z,7.43
2018-05-23T05:30:49.388Z,8.00
2018-05-23T05:33:16.942Z,8.47
2018-05-23T05:35:44.502Z,7.90
2018-05-23T05:38:12.025Z,7.87
2018-05-23T05:40:40.304Z,7.57
2018-05-23T05:43:07.815Z,7.57
2018-05-23T05:45:35.357Z,7.37
2018-05-23T05:48:02.908Z,7.37
2018-05-23T05:50:30.413Z,7.70
2018-05-23T05:52:57.994Z,8.40
2018-05-23T05:55:26.260Z,8.10
2018-05-23T05:57:54.625Z,7.60
2018-05-23T06:00:22.929Z,7.77
2018-05-23T06:02:50.504Z,6.77
2018-05-23T06:05:18.125Z,7.53
2018-05-23T06:07:45.562Z,6.93
2018-05-23T06:10:13.102Z,7.20
2018-05-23T06:12:40.612Z,7.23
2018-05-23T06:15:08.914Z,7.00
2018-05-23T06:17:36.450Z,7.07
2018-05-23T06:20:04.774Z,6.73
2018-05-23T06:22:32.336Z,7.53
2018-05-23T06:24:59.892Z,7.37
2018-05-23T06:27:27.471Z,8.17
2018-05-23T06:29:54.977Z,7.83
2018-05-23T06:32:22.561Z,8.47
2018-05-23T06:34:50.148Z,8.37
2018-05-23T06:37:17.665Z,8.70
2018-05-23T06:39:45.181Z,9.70
2018-05-23T06:42:12.721Z,9.13
2018-05-23T06:44:40.237Z,8.80
2018-05-23T06:47:07.751Z,8.83
2018-05-23T06:49:35.277Z,9.30
2018-05-23T06:52:02.795Z,8.83
2018-05-23T06:54:30.349Z,8.30
2018-05-23T06:56:58.624Z,8.17
2018-05-23T06:59:26.899Z,8.70
2018-05-23T07:01:55.189Z,8.10
2018-05-23T07:04:22.692Z,7.40
2018-05-23T07:06:50.205Z,7.27
2018-05-23T07:09:17.726Z,7.10
2018-05-23T07:11:45.285Z,8.50
2018-05-23T07:14:12.813Z,8.37
2018-05-23T07:16:40.344Z,8.33
2018-05-23T07:19:07.892Z,8.33
2018-05-23T07:21:36.184Z,7.83
2018-05-23T07:24:03.755Z,9.03
2018-05-23T07:26:31.269Z,9.07
2018-05-23T07:28:58.803Z,8.07
2018-05-23T07:31:26.332Z,9.70
2018-05-23T07:33:53.885Z,9.93
2018-05-23T07:36:21.423Z,9.43
2018-05-23T07:38:49.708Z,8.63
2018-05-23T07:41:17.216Z,9.53
2018-05-23T07:43:44.738Z,8.43
2018-05-23T07:46:12.277Z,9.17
2018-05-23T07:48:39.802Z,9.77
2018-05-23T07:51:07.397Z,10.60
2018-05-23T07:53:34.930Z,10.83
2018-05-23T07:56:02.460Z,11.77
2018-05-23T07:58:29.993Z,11.13
2018-05-23T08:00:57.520Z,12.23
2018-05-23T08:03:25.092Z,10.73
2018-05-23T08:05:52.672Z,10.57
2018-05-23T08:08:20.239Z,10.23
2018-05-23T08:10:47.758Z,10.60
2018-05-23T08:13:16.092Z,10.80
2018-05-23T08:15:43.618Z,9.80
2018-05-23T08:18:11.168Z,10.17
2018-05-23T08:20:38.671Z,10.80
2018-05-23T08:23:06.170Z,10.70
2018-05-23T08:25:34.519Z,10.27
2018-05-23T08:28:02.114Z,12.70
2018-05-23T08:30:30.444Z,10.73
2018-05-23T08:32:57.961Z,12.93
2018-05-23T08:35:25.503Z,11.63
2018-05-23T08:37:53.810Z,11.87
2018-05-23T08:40:21.387Z,11.17
2018-05-23T08:42:48.900Z,11.00
2018-05-23T08:45:17.179Z,11.23
2018-05-23T08:47:45.477Z,10.30
2018-05-23T08:50:12.981Z,10.60
2018-05-23T08:52:40.546Z,13.07
2018-05-23T08:55:08.144Z,12.40
2018-05-23T08:57:35.674Z,10.17
2018-05-23T09:00:03.959Z,12.40
2018-05-23T09:02:31.493Z,12.10
2018-05-23T09:04:59.072Z,11.30
2018-05-23T09:07:26.632Z,10.80
2018-05-23T09:09:54.917Z,11.53
2018-05-23T09:12:23.239Z,11.13
2018-05-23T09:14:57.815Z,11.10
2018-05-23T09:17:26.114Z,12.60
2018-05-23T09:19:53.649Z,11.87
2018-05-23T09:22:21.938Z,10.90
2018-05-23T09:24:50.219Z,11.63
2018-05-23T09:27:17.799Z,10.43
2018-05-23T09:29:45.372Z,11.30
2018-05-23T09:32:12.989Z,12.80
2018-05-23T09:34:40.513Z,12.10
2018-05-23T09:37:08.050Z,13.00
2018-05-23T09:39:35.598Z,12.17
2018-05-23T09:42:03.092Z,12.53
2018-05-23T09:44:30.621Z,12.13
2018-05-23T09:46:58.133Z,11.90
2018-05-23T09:49:26.450Z,12.60
2018-05-23T09:51:54.013Z,10.90
2018-05-23T09:54:21.537Z,11.47
2018-05-23T09:56:49.867Z,12.30
2018-05-23T09:59:17.392Z,10.73
2018-05-23T10:01:44.936Z,12.30
2018-05-23T10:04:12.437Z,11.07
2018-05-23T10:06:40.038Z,11.10
2018-05-23T10:09:08.400Z,10.23
2018-05-23T10:11:35.928Z,11.80
2018-05-23T10:14:03.521Z,12.03
2018-05-23T10:16:31.048Z,12.70
2018-05-23T10:18:58.556Z,9.10
2018-05-23T10:21:26.876Z,8.57
2018-05-23T10:23:55.014Z,6.03
2018-05-23T10:26:23.346Z,6.90
2018-05-23T10:28:50.897Z,6.20
2018-05-23T10:31:18.439Z,6.60
2018-05-23T10:33:45.955Z,6.57
2018-05-23T10:36:14.264Z,5.90
2018-05-23T10:38:41.809Z,7.57
2018-05-23T10:41:09.351Z,6.57
2018-05-23T10:43:36.900Z,6.17
2018-05-23T10:46:04.487Z,6.20
2018-05-23T10:48:32.013Z,6.10
2018-05-23T10:50:59.580Z,5.83
2018-05-23T10:53:27.921Z,6.03
2018-05-23T10:55:55.443Z,5.60
2018-05-23T10:58:22.945Z,5.23
2018-05-23T11:00:50.460Z,5.30
2018-05-23T11:03:17.979Z,5.13
2018-05-23T11:05:45.574Z,5.07
2018-05-23T11:08:13.035Z,5.40
2018-05-23T11:10:40.545Z,5.53
2018-05-23T11:13:08.115Z,6.20
2018-05-23T11:15:35.625Z,5.70
2018-05-23T11:18:03.186Z,5.37
2018-05-23T11:20:30.696Z,6.50
2018-05-23T11:22:58.203Z,6.67
2018-05-23T11:25:25.745Z,5.50
2018-05-23T11:27:53.276Z,5.17
2018-05-23T11:30:20.798Z,4.73
2018-05-23T11:32:48.326Z,5.10
2018-05-23T11:35:15.908Z,4.60
2018-05-23T11:37:43.418Z,5.17
2018-05-23T11:40:12.525Z,6.10
2018-05-23T11:42:40.790Z,5.90
2018-05-23T11:45:09.061Z,6.70
2018-05-23T11:47:37.338Z,6.57
2018-05-23T11:50:05.588Z,6.40
2018-05-23T11:52:33.119Z,6.30
2018-05-23T11:55:01.402Z,7.40
2018-05-23T11:57:28.909Z,6.70
2018-05-23T11:59:57.208Z,7.47
2018-05-23T12:02:24.775Z,7.10
2018-05-23T12:04:52.286Z,6.10
2018-05-23T12:07:19.789Z,6.60
2018-05-23T12:09:47.321Z,5.37
2018-05-23T12:12:14.805Z,5.57
2018-05-23T12:14:42.359Z,7.07
2018-05-23T12:17:09.858Z,7.10
2018-05-23T12:19:37.391Z,6.43
2018-05-23T12:22:04.928Z,5.60
2018-05-23T12:24:32.468Z,5.27
2018-05-23T12:27:00.774Z,4.93
2018-05-23T12:29:28.290Z,4.53
2018-05-23T12:31:55.818Z,4.17
2018-05-23T12:34:23.321Z,4.10
2018-05-23T12:36:51.597Z,4.13
2018-05-23T12:39:19.870Z,3.97
2018-05-23T12:41:47.427Z,4.53
2018-05-23T12:44:14.945Z,4.40
2018-05-23T12:46:42.479Z,4.33
2018-05-23T12:49:10.007Z,4.70
2018-05-23T12:51:38.276Z,4.20
2018-05-23T12:54:05.801Z,4.17
2018-05-23T12:56:33.338Z,4.60
2018-05-23T12:59:01.672Z,4.70
2018-05-23T13:01:29.174Z,4.80
2018-05-23T13:03:56.686Z,4.20
2018-05-23T13:06:24.194Z,4.30
2018-05-23T13:08:51.709Z,4.43
2018-05-23T13:11:19.987Z,4.40
2018-05-23T13:13:48.272Z,5.00
2018-05-23T13:16:16.548Z,4.93
2018-05-23T13:18:44.807Z,4.77
2018-05-23T13:21:12.327Z,4.50
2018-05-23T13:23:39.829Z,4.37
2018-05-23T13:26:07.325Z,4.80
2018-05-23T13:28:34.849Z,4.17
2018-05-23T13:31:03.127Z,5.20
2018-05-23T13:33:31.447Z,5.30
2018-05-23T13:35:58.946Z,5.27
2018-05-23T13:38:26.457Z,5.80
2018-05-23T13:40:53.966Z,5.90
2018-05-23T13:43:21.510Z,5.00
2018-05-23T13:45:49.048Z,5.20
2018-05-23T13:48:16.627Z,6.10
2018-05-23T13:50:44.153Z,5.07
2018-05-23T13:53:11.652Z,5.00
2018-05-23T13:55:39.197Z,5.20
2018-05-23T13:58:06.707Z,4.97
2018-05-23T14:00:34.226Z,4.70
2018-05-23T14:03:01.757Z,4.10
2018-05-23T14:05:29.265Z,4.73
2018-05-23T14:07:57.517Z,4.87
2018-05-23T14:10:25.100Z,5.13
2018-05-23T14:12:53.386Z,4.67
2018-05-23T14:15:20.912Z,4.63
2018-05-23T14:17:48.403Z,4.70
2018-05-23T14:20:16.703Z,4.10
2018-05-23T14:22:44.279Z,4.60
2018-05-23T14:25:11.797Z,5.37
2018-05-23T14:27:40.068Z,5.00
2018-05-23T14:30:08.331Z,5.03
2018-05-23T14:32:36.597Z,5.50
2018-05-23T14:35:04.094Z,6.37
2018-05-23T14:37:31.643Z,5.87
2018-05-23T14:39:59.985Z,5.23
2018-05-23T14:42:27.556Z,5.00
2018-05-23T14:44:55.238Z,4.80
2018-05-23T14:47:22.699Z,5.27
2018-05-23T14:49:50.251Z,5.60
2018-05-23T14:55:23.344Z,4.73
2018-05-23T14:57:50.822Z,5.17
2018-05-23T15:00:18.347Z,4.90
2018-05-23T15:02:45.866Z,4.70
2018-05-23T15:05:13.377Z,4.83
2018-05-23T15:07:40.880Z,5.20
2018-05-23T15:10:08.441Z,5.17
2018-05-23T15:12:35.973Z,5.30
2018-05-23T15:15:04.281Z,5.10
2018-05-23T15:17:32.634Z,4.43
2018-05-23T15:20:01.090Z,4.50
2018-05-23T15:22:28.518Z,4.90
2018-05-23T15:24:56.061Z,4.60
2018-05-23T15:27:23.606Z,4.50
2018-05-23T15:29:51.107Z,5.00
2018-05-23T15:32:18.654Z,5.00
2018-05-23T15:34:47.106Z,5.80
2018-05-23T15:37:14.633Z,5.13
2018-05-23T15:39:42.915Z,5.50
2018-05-23T15:42:10.429Z,5.40
2018-05-23T15:44:38.021Z,4.60
2018-05-23T15:47:06.915Z,5.50
2018-05-23T15:49:35.214Z,5.10
2018-05-23T15:52:02.726Z,5.07
2018-05-23T15:54:37.342Z,6.10
2018-05-23T15:57:04.883Z,5.37
2018-05-23T15:59:32.404Z,5.90
2018-05-23T16:04:59.076Z,6.43
2018-05-23T16:07:26.618Z,6.63
2018-05-23T16:10:14.070Z,7.07
2018-05-23T16:12:41.609Z,6.30
2018-05-23T16:15:09.128Z,7.53
2018-05-23T16:17:36.633Z,7.80
2018-05-23T16:20:04.182Z,7.20
2018-05-23T16:22:31.700Z,7.23
2018-05-23T16:24:59.257Z,7.80
2018-05-23T16:27:26.793Z,7.57
2018-05-23T16:29:54.353Z,8.17
2018-05-23T16:32:21.847Z,8.23
2018-05-23T16:34:49.344Z,8.93
2018-05-23T16:37:16.893Z,8.53
2018-05-23T16:45:35.756Z,8.63
2018-05-23T16:48:03.271Z,8.20
2018-05-23T16:50:30.795Z,7.87
2018-05-23T16:52:59.089Z,8.97
2018-05-23T16:55:26.592Z,8.90
2018-05-23T16:57:54.102Z,9.50
2018-05-23T17:00:21.595Z,9.70
2018-05-23T17:02:49.215Z,8.87
2018-05-23T17:05:33.350Z,9.20
2018-05-23T17:08:01.665Z,8.90
2018-05-23T17:10:29.156Z,8.87
2018-05-23T17:12:56.664Z,8.67
2018-05-23T17:15:24.187Z,9.80
2018-05-23T17:17:51.702Z,9.50
2018-05-23T17:20:19.258Z,9.20
2018-05-23T17:22:46.753Z,9.70
2018-05-23T17:25:14.275Z,9.80
2018-05-23T17:27:41.811Z,9.80
2018-05-23T17:30:09.326Z,8.77
2018-05-23T17:32:36.905Z,9.63
2018-05-23T17:35:04.476Z,8.80
2018-05-23T17:46:12.935Z,9.73
2018-05-23T17:48:41.268Z,9.23
2018-05-23T17:51:08.773Z,8.60
2018-05-23T17:53:37.028Z,8.57
2018-05-23T17:56:04.528Z,8.00
2018-05-23T17:58:37.340Z,8.37
2018-05-23T18:01:17.544Z,8.20
2018-05-23T18:03:45.813Z,8.53
2018-05-23T18:06:22.504Z,9.40
2018-05-23T18:08:49.913Z,9.10
2018-05-23T18:11:17.410Z,8.50
2018-05-23T18:13:59.949Z,10.23
2018-05-23T18:16:27.463Z,8.70
2018-05-23T18:18:54.943Z,10.57
2018-05-23T18:30:20.422Z,9.80
2018-05-23T18:32:47.994Z,9.40
2018-05-23T18:35:15.625Z,9.80
2018-05-23T18:37:43.940Z,9.87
2018-05-23T18:40:11.484Z,10.83
2018-05-23T18:42:39.021Z,8.60
2018-05-23T18:45:07.298Z,10.30
2018-05-23T18:47:35.591Z,9.60
2018-05-23T18:50:03.112Z,9.87
2018-05-23T18:52:30.699Z,9.77
2018-05-23T18:54:59.027Z,8.40
2018-05-23T18:57:26.541Z,9.20
2018-05-23T18:59:54.060Z,8.87
2018-05-23T19:02:21.600Z,8.80
2018-05-23T19:04:49.134Z,9.60
2018-05-23T19:07:16.689Z,8.30
2018-05-23T19:09:44.248Z,9.30
2018-05-23T19:12:11.786Z,8.97
2018-05-23T19:14:40.082Z,9.40
2018-05-23T19:17:07.608Z,8.50
2018-05-23T19:19:36.008Z,9.17
2018-05-23T19:22:03.464Z,8.93
2018-05-23T19:24:31.767Z,8.60
2018-05-23T19:26:59.293Z,9.47
2018-05-23T19:29:27.554Z,9.67
2018-05-23T19:31:55.109Z,9.20
2018-05-23T19:34:23.401Z,8.90
2018-05-23T19:36:51.705Z,9.60
2018-05-23T19:39:19.217Z,9.30
2018-05-23T19:41:46.793Z,9.53
2018-05-23T19:44:14.323Z,8.80
2018-05-23T19:46:41.885Z,9.17
2018-05-23T19:49:09.386Z,9.63
2018-05-23T19:51:36.938Z,9.90
2018-05-23T19:54:04.488Z,9.37
2018-05-23T19:56:32.138Z,9.53
2018-05-23T19:59:00.353Z,9.70
2018-05-23T20:01:27.885Z,9.70
2018-05-23T20:03:56.243Z,10.40
2018-05-23T20:06:23.833Z,10.07
2018-05-23T20:08:51.393Z,9.20
2018-05-23T20:11:18.927Z,9.80
2018-05-23T20:13:46.471Z,9.40
2018-05-23T20:16:14.027Z,10.23
2018-05-23T20:18:41.621Z,10.23
2018-05-23T20:21:10.013Z,9.80
2018-05-23T20:23:37.550Z,10.40
2018-05-23T20:26:05.162Z,10.73
2018-05-23T20:28:32.673Z,10.57
2018-05-23T20:31:00.989Z,10.40
2018-05-23T20:33:28.522Z,9.80
2018-05-23T20:35:56.122Z,10.43
2018-05-23T20:38:23.707Z,11.07
2018-05-23T20:40:51.240Z,11.27
2018-05-23T20:43:18.766Z,11.60
2018-05-23T20:45:46.318Z,11.27
2018-05-23T20:48:13.838Z,10.60
2018-05-23T20:50:41.376Z,11.37
2018-05-23T20:53:08.928Z,11.43
2018-05-23T20:55:36.450Z,11.70
2018-05-23T20:58:04.008Z,11.47
2018-05-23T21:00:31.606Z,11.53
2018-05-23T21:02:59.212Z,12.20
2018-05-23T21:05:27.538Z,12.17
2018-05-23T21:07:55.413Z,11.60
2018-05-23T21:10:23.727Z,11.63
2018-05-23T21:12:51.234Z,10.30
2018-05-23T21:15:18.784Z,10.00
2018-05-23T21:17:46.334Z,11.37
2018-05-23T21:20:13.857Z,10.40
2018-05-23T21:22:41.379Z,10.10
2018-05-23T21:25:08.910Z,9.97
2018-05-23T21:27:36.458Z,9.97
2018-05-23T21:30:04.745Z,11.07
2018-05-23T21:32:32.312Z,10.20
2018-05-23T21:34:59.828Z,12.77
2018-05-23T21:37:27.355Z,11.97
2018-05-23T21:39:54.881Z,13.17
2018-05-23T21:42:22.400Z,12.70
2018-05-23T21:44:49.942Z,11.90
2018-05-23T21:47:17.454Z,11.20
2018-05-23T21:49:44.957Z,12.20
2018-05-23T21:52:12.470Z,12.50
2018-05-23T21:54:40.054Z,11.27
2018-05-23T21:57:07.545Z,10.87
2018-05-23T21:59:35.149Z,11.43
2018-05-23T22:02:02.732Z,11.30
2018-05-23T22:04:30.275Z,11.77
2018-05-23T22:06:57.814Z,12.50
2018-05-23T22:09:26.152Z,11.73
2018-05-23T22:11:53.669Z,12.47
2018-05-23T22:14:21.245Z,12.47
2018-05-23T22:16:48.785Z,12.30
2018-05-23T22:19:16.359Z,12.20
2018-05-23T22:21:43.880Z,11.90
2018-05-23T22:24:12.193Z,12.67
2018-05-23T22:26:39.760Z,13.10
2018-05-23T22:29:07.263Z,13.60
2018-05-23T22:31:34.832Z,13.63
2018-05-23T22:34:03.150Z,13.40
2018-05-23T22:36:30.754Z,13.63
2018-05-23T22:38:58.276Z,13.17
2018-05-23T22:41:25.818Z,14.33
2018-05-23T22:43:53.352Z,14.50
2018-05-23T22:46:21.666Z,13.57
2018-05-23T22:48:49.193Z,14.47
2018-05-23T22:51:16.777Z,15.73
2018-05-23T22:53:44.353Z,14.30
2018-05-23T22:56:11.873Z,13.90
2018-05-23T22:58:39.402Z,13.63
2018-05-23T23:01:06.933Z,14.03
2018-05-23T23:03:34.446Z,16.17
2018-05-23T23:06:01.972Z,14.63
2018-05-23T23:08:29.534Z,13.63
2018-05-23T23:10:57.065Z,14.93
2018-05-23T23:13:24.565Z,17.43
2018-05-23T23:15:52.111Z,19.23
2018-05-23T23:18:19.617Z,18.00
2018-05-23T23:20:47.137Z,15.37
2018-05-23T23:23:14.721Z,13.93
2018-05-23T23:25:42.249Z,14.23
2018-05-23T23:28:09.813Z,16.50
2018-05-23T23:30:37.332Z,15.63
2018-05-23T23:33:04.893Z,15.47
2018-05-23T23:35:32.423Z,15.90
2018-05-23T23:37:59.962Z,15.33
2018-05-23T23:40:28.271Z,13.27
2018-05-23T23:42:55.812Z,11.03
2018-05-23T23:45:23.327Z,10.53
2018-05-23T23:47:50.865Z,10.07
2018-05-23T23:50:18.480Z,10.23
2018-05-23T23:52:45.905Z,11.23
2018-05-23T23:55:13.429Z,10.70
2018-05-23T23:57:41.030Z,11.17
